Terminal Aerodrome Forecast
Issued by NWS Dodge City, KS

Home | Current Version | Previous Version | Graphics & Text | Print | Product List | Glossary Off
Versions: 1 2 3 4 5 6 7 8 9 10 11 12 13 14 15 16 17 18 19

000
FTUS43 KDDC 211300 AAA
TAFDDC
TAF AMD
KDDC 211309Z 2113/2212 36010KT 2SM BR SCT010
     FM211500 34008KT P6SM SKC
     FM211700 01014G20KT P6SM SCT250
     FM212000 02012G20KT P6SM VCSH SCT050
     FM220000 04008KT P6SM FEW050=

USA.gov is the U.S. government's official web portal to all federal, state and local government web resources and services.